Time,TemperatureF,DewpointF,PressureIn,WindDirection,WindDirectionDegrees,WindSpeedMPH,WindSpeedGustMPH,Humidity,HourlyPrecipIn,Conditions,Clouds,dailyrainin,SoftwareType,DateUTC
2013-01-14 00:00:00,46.4,46.1,29.97,South,180,2.0,6.0,99,0.00,,,0.00,VWS V14.01,2013-01-14 05:00:00,
2013-01-14 00:30:00,46.6,46.3,29.97,SSW,202,2.0,6.0,99,0.00,,,0.00,VWS V14.01,2013-01-14 05:30:00,
2013-01-14 01:00:00,45.8,45.5,29.97,South,180,2.0,6.0,99,0.00,,,0.00,VWS V14.01,2013-01-14 06:00:00,
2013-01-14 01:30:00,45.7,45.4,29.96,SSW,202,2.0,7.0,99,0.00,,,0.00,VWS V14.01,2013-01-14 06:30:00,
2013-01-14 02:00:00,46.9,46.6,29.95,South,180,2.0,7.0,99,0.00,,,0.00,VWS V14.01,2013-01-14 07:00:00,
2013-01-14 02:30:00,45.4,45.1,29.96,WSW,248,2.0,9.0,99,0.00,,,0.00,VWS V14.01,2013-01-14 07:30:00,
2013-01-14 03:00:00,45.8,45.5,29.96,WSW,248,3.0,10.0,99,0.00,,,0.00,VWS V14.01,2013-01-14 08:00:00,
2013-01-14 03:30:00,46.9,46.6,29.95,SW,225,3.0,10.0,99,0.00,,,0.00,VWS V14.01,2013-01-14 08:30:00,
2013-01-14 04:00:00,46.9,46.6,29.93,SW,225,2.0,8.0,99,0.00,,,0.00,VWS V14.01,2013-01-14 09:00:00,
2013-01-14 04:30:00,47.2,46.9,29.92,SSW,202,3.0,10.0,99,0.00,,,0.00,VWS V14.01,2013-01-14 09:30:00,
2013-01-14 05:00:00,46.9,46.6,29.92,SSW,202,3.0,11.0,99,0.00,,,0.00,VWS V14.01,2013-01-14 10:00:00,
2013-01-14 05:30:00,46.5,46.2,29.93,SSW,202,1.0,7.0,99,0.00,,,0.00,VWS V14.01,2013-01-14 10:30:00,
2013-01-14 06:00:00,47.0,46.7,29.94,SW,225,1.0,6.0,99,0.00,,,0.00,VWS V14.01,2013-01-14 11:00:00,
2013-01-14 06:30:00,47.0,46.7,29.93,South,180,2.0,7.0,99,0.00,,,0.00,VWS V14.01,2013-01-14 11:30:00,
2013-01-14 07:00:00,46.5,46.2,29.92,SSW,202,3.0,11.0,99,0.00,,,0.00,VWS V14.01,2013-01-14 12:00:00,
2013-01-14 07:30:00,45.6,45.3,29.92,SSW,202,3.0,10.0,99,0.00,,,0.00,VWS V14.01,2013-01-14 12:30:00,
2013-01-14 08:00:00,47.6,47.3,29.90,South,180,4.0,14.0,99,0.00,,,0.00,VWS V14.01,2013-01-14 13:00:00,
2013-01-14 08:30:00,49.2,48.9,29.90,South,180,5.0,18.0,99,0.00,,,0.00,VWS V14.01,2013-01-14 13:30:00,
2013-01-14 09:00:00,49.2,48.9,29.90,South,180,5.0,13.0,99,0.00,,,0.00,VWS V14.01,2013-01-14 14:00:00,
2013-01-14 09:30:00,48.3,48.0,29.95,West,270,5.0,14.0,99,0.00,,,0.00,VWS V14.01,2013-01-14 14:30:00,
2013-01-14 10:21:00,48.3,48.0,29.95,West,270,5.0,14.0,99,0.00,,,0.00,VWS V14.01,2013-01-14 15:21:00,
2013-01-14 10:22:00,46.0,45.7,29.94,SSE,153,1.0,5.0,99,0.00,,,0.00,VWS V14.01,2013-01-14 15:22:00,
2013-01-14 10:27:00,46.2,45.9,29.96,NW,313,0.0,5.0,99,0.00,,,0.00,VWS V14.01,2013-01-14 15:27:00,
2013-01-14 10:30:00,46.4,46.1,29.95,NW,313,0.0,3.0,99,0.00,,,0.00,VWS V14.01,2013-01-14 15:30:00,
2013-01-14 10:32:00,46.6,46.3,29.95,NW,313,0.0,0.0,99,0.00,,,0.00,VWS V14.01,2013-01-14 15:32:00,
2013-01-14 10:37:00,47.1,46.8,29.95,NW,313,0.0,3.0,99,0.00,,,0.00,VWS V14.01,2013-01-14 15:37:00,
2013-01-14 10:42:00,47.6,47.3,29.95,NW,313,2.0,3.0,99,0.00,,,0.00,VWS V14.01,2013-01-14 15:42:00,
2013-01-14 10:47:00,47.4,47.1,29.95,NW,313,0.0,3.0,99,0.00,,,0.00,VWS V14.01,2013-01-14 15:47:00,
2013-01-14 10:52:00,47.0,46.7,29.94,NW,313,2.0,3.0,99,0.00,,,0.00,VWS V14.01,2013-01-14 15:52:00,
2013-01-14 10:57:00,46.8,46.5,29.94,NW,313,0.0,3.0,99,0.00,,,0.00,VWS V14.01,2013-01-14 15:57:00,
2013-01-14 11:00:00,47.8,47.5,29.93,NW,313,1.0,2.0,99,0.00,,,0.00,VWS V14.01,2013-01-14 16:00:00,
2013-01-14 11:02:00,46.9,46.6,29.94,NW,313,0.0,3.0,99,0.00,,,0.00,VWS V14.01,2013-01-14 16:02:00,
2013-01-14 11:07:00,46.7,46.4,29.94,NW,313,0.0,3.0,99,0.00,,,0.00,VWS V14.01,2013-01-14 16:07:00,
2013-01-14 11:12:00,46.3,46.0,29.94,NW,313,0.0,3.0,99,0.00,,,0.00,VWS V14.01,2013-01-14 16:12:00,
2013-01-14 11:17:00,46.3,46.0,29.94,NW,313,0.0,3.0,99,0.00,,,0.00,VWS V14.01,2013-01-14 16:17:00,
2013-01-14 11:22:00,46.4,46.1,29.95,NW,313,0.0,3.0,99,0.00,,,0.00,VWS V14.01,2013-01-14 16:22:00,
2013-01-14 11:27:00,46.3,46.0,29.95,NW,313,0.0,3.0,99,0.00,,,0.00,VWS V14.01,2013-01-14 16:27:00,
2013-01-14 11:32:00,46.4,46.1,29.95,NW,313,0.0,0.0,99,0.00,,,0.00,VWS V14.01,2013-01-14 16:32:00,
2013-01-14 11:37:00,46.5,46.2,29.95,NW,313,0.0,2.0,99,0.00,,,0.00,VWS V14.01,2013-01-14 16:37:00,
2013-01-14 11:42:00,46.5,46.2,29.94,NW,313,1.0,2.0,99,0.00,,,0.00,VWS V14.01,2013-01-14 16:42:00,
2013-01-14 11:47:00,46.6,46.3,29.94,NW,313,2.0,2.0,99,0.00,,,0.00,VWS V14.01,2013-01-14 16:47:00,
2013-01-14 11:52:00,47.0,46.7,29.94,NW,313,0.0,2.0,99,0.00,,,0.00,VWS V14.01,2013-01-14 16:52:00,
2013-01-14 11:57:00,47.4,47.1,29.94,NW,313,0.0,2.0,99,0.00,,,0.00,VWS V14.01,2013-01-14 16:57:00,
2013-01-14 12:02:00,47.8,47.5,29.93,NW,313,1.0,2.0,99,0.00,,,0.00,VWS V14.01,2013-01-14 17:02:00,
2013-01-14 12:07:00,47.6,47.3,29.94,NW,313,0.0,2.0,99,0.00,,,0.00,VWS V14.01,2013-01-14 17:07:00,
2013-01-14 12:12:00,47.6,47.3,29.94,NW,313,0.0,2.0,99,0.00,,,0.00,VWS V14.01,2013-01-14 17:12:00,
2013-01-14 12:17:00,47.8,47.5,29.95,NW,313,0.0,2.0,99,0.00,,,0.00,VWS V14.01,2013-01-14 17:17:00,
2013-01-14 12:22:00,47.5,47.2,29.94,NW,313,0.0,3.0,99,0.00,,,0.00,VWS V14.01,2013-01-14 17:22:00,
2013-01-14 12:27:00,47.4,47.1,29.94,NW,313,0.0,3.0,99,0.00,,,0.00,VWS V14.01,2013-01-14 17:27:00,
2013-01-14 12:30:00,50.1,50.1,29.94,SSE,156,0.0,4.0,100,0.00,,,0.00,VWS V14.01,2013-01-14 17:30:00,
2013-01-14 12:32:00,47.4,47.1,29.94,NW,313,2.0,3.0,99,0.00,,,0.00,VWS V14.01,2013-01-14 17:32:00,
2013-01-14 12:37:00,47.5,47.2,29.94,NW,313,0.0,3.0,99,0.00,,,0.00,VWS V14.01,2013-01-14 17:37:00,
2013-01-14 12:42:00,47.7,47.4,29.94,NW,313,1.0,3.0,99,0.00,,,0.00,VWS V14.01,2013-01-14 17:42:00,
2013-01-14 12:47:00,47.8,47.5,29.93,NW,313,3.0,3.0,99,0.00,,,0.00,VWS V14.01,2013-01-14 17:47:00,
2013-01-14 12:52:00,48.0,47.7,29.93,NW,313,2.0,3.0,99,0.00,,,0.00,VWS V14.01,2013-01-14 17:52:00,
2013-01-14 12:57:00,48.4,48.1,29.94,NW,313,1.0,3.0,99,0.00,,,0.00,VWS V14.01,2013-01-14 17:57:00,
2013-01-14 13:00:00,51.2,51.2,29.96,WSW,248,2.0,4.0,100,0.00,,,0.00,VWS V14.01,2013-01-14 18:00:00,
2013-01-14 13:02:00,48.7,48.4,29.93,NW,313,0.0,3.0,99,0.00,,,0.00,VWS V14.01,2013-01-14 18:02:00,
2013-01-14 13:07:00,49.1,48.8,29.93,NW,313,1.0,2.0,99,0.00,,,0.00,VWS V14.01,2013-01-14 18:07:00,
2013-01-14 13:12:00,50.0,50.0,29.93,SSE,153,0.0,4.0,100,0.00,,,0.00,VWS V14.01,2013-01-14 18:12:00,
2013-01-14 13:17:00,50.5,50.5,29.93,SSE,153,2.0,4.0,100,0.00,,,0.00,VWS V14.01,2013-01-14 18:17:00,
2013-01-14 13:22:00,50.5,50.5,29.93,SSE,156,2.0,4.0,100,0.00,,,0.00,VWS V14.01,2013-01-14 18:22:00,
2013-01-14 13:27:00,50.5,50.5,29.94,SSE,156,1.0,4.0,100,0.00,,,0.00,VWS V14.01,2013-01-14 18:27:00,
2013-01-14 13:30:00,48.4,48.4,29.96,WSW,248,0.0,4.0,100,0.00,,,0.00,VWS V14.01,2013-01-14 18:30:00,
2013-01-14 13:32:00,50.1,50.1,29.94,SSE,156,0.0,4.0,100,0.00,,,0.00,VWS V14.01,2013-01-14 18:32:00,
2013-01-14 13:37:00,49.9,49.9,29.94,SSE,156,0.0,2.0,100,0.00,,,0.00,VWS V14.01,2013-01-14 18:37:00,
2013-01-14 13:42:00,50.2,50.2,29.93,SSE,156,0.0,2.0,100,0.00,,,0.00,VWS V14.01,2013-01-14 18:42:00,
2013-01-14 13:47:00,51.1,51.1,29.94,SSW,213,3.0,3.0,100,0.00,,,0.00,VWS V14.01,2013-01-14 18:47:00,
2013-01-14 13:52:00,51.0,51.0,29.94,WSW,248,2.0,4.0,100,0.00,,,0.00,VWS V14.01,2013-01-14 18:52:00,
2013-01-14 13:57:00,51.1,51.1,29.95,WSW,248,0.0,4.0,100,0.00,,,0.00,VWS V14.01,2013-01-14 18:57:00,
2013-01-14 14:00:00,47.0,46.7,29.99,WSW,248,0.0,3.0,99,0.00,,,0.00,VWS V14.01,2013-01-14 19:00:00,
2013-01-14 14:02:00,51.2,51.2,29.96,WSW,248,1.0,4.0,100,0.00,,,0.00,VWS V14.01,2013-01-14 19:02:00,
2013-01-14 14:07:00,51.2,51.2,29.96,WSW,248,0.0,2.0,100,0.00,,,0.00,VWS V14.01,2013-01-14 19:07:00,
2013-01-14 14:12:00,50.1,50.1,29.96,WSW,248,1.0,4.0,100,0.00,,,0.00,VWS V14.01,2013-01-14 19:12:00,
2013-01-14 14:17:00,49.5,49.5,29.96,WSW,248,0.0,4.0,100,0.00,,,0.00,VWS V14.01,2013-01-14 19:17:00,
2013-01-14 14:22:00,49.4,49.4,29.96,WSW,248,1.0,4.0,100,0.00,,,0.00,VWS V14.01,2013-01-14 19:22:00,
2013-01-14 14:27:00,48.8,48.8,29.96,WSW,248,1.0,4.0,100,0.00,,,0.00,VWS V14.01,2013-01-14 19:27:00,
2013-01-14 14:30:00,45.3,45.0,29.99,SE,128,3.0,5.0,99,0.00,,,0.00,VWS V14.01,2013-01-14 19:30:00,
2013-01-14 14:32:00,48.4,48.4,29.96,WSW,248,0.0,4.0,100,0.00,,,0.00,VWS V14.01,2013-01-14 19:32:00,
2013-01-14 14:37:00,48.2,48.2,29.97,WSW,248,0.0,2.0,100,0.00,,,0.00,VWS V14.01,2013-01-14 19:37:00,
2013-01-14 14:42:00,47.9,47.9,29.98,WSW,248,0.0,2.0,100,0.00,,,0.00,VWS V14.01,2013-01-14 19:42:00,
2013-01-14 14:47:00,47.4,47.1,29.98,WSW,248,1.0,2.0,99,0.00,,,0.00,VWS V14.01,2013-01-14 19:47:00,
2013-01-14 14:52:00,47.0,46.7,29.98,WSW,248,0.0,3.0,99,0.00,,,0.00,VWS V14.01,2013-01-14 19:52:00,
2013-01-14 14:57:00,47.0,46.7,29.98,WSW,248,0.0,3.0,99,0.00,,,0.00,VWS V14.01,2013-01-14 19:57:00,
2013-01-14 15:02:00,47.0,46.7,29.99,WSW,248,0.0,3.0,99,0.00,,,0.00,VWS V14.01,2013-01-14 20:02:00,
2013-01-14 15:07:00,47.2,46.9,29.99,WSW,248,0.0,3.0,99,0.00,,,0.00,VWS V14.01,2013-01-14 20:07:00,
2013-01-14 15:12:00,47.4,47.1,29.98,WSW,244,3.0,3.0,99,0.00,,,0.00,VWS V14.01,2013-01-14 20:12:00,
2013-01-14 15:17:00,47.3,47.0,29.98,SE,137,2.0,4.0,99,0.00,,,0.00,VWS V14.01,2013-01-14 20:17:00,
2013-01-14 15:22:00,47.1,46.8,29.99,SE,137,3.0,4.0,99,0.00,,,0.00,VWS V14.01,2013-01-14 20:22:00,
2013-01-14 15:27:00,46.0,45.7,29.99,SE,139,4.0,5.0,99,0.00,,,0.00,VWS V14.01,2013-01-14 20:27:00,
2013-01-14 15:30:00,45.3,45.0,30.02,SSE,163,0.0,2.0,99,0.00,,,0.00,VWS V14.01,2013-01-14 20:30:00,
2013-01-14 15:32:00,45.3,45.0,29.99,SE,130,3.0,4.0,99,0.00,,,0.00,VWS V14.01,2013-01-14 20:32:00,
2013-01-14 15:37:00,45.2,44.9,29.99,SSE,163,1.0,4.0,99,0.00,,,0.00,VWS V14.01,2013-01-14 20:37:00,
2013-01-14 15:42:00,45.4,45.1,30.00,SSE,163,0.0,4.0,99,0.00,,,0.00,VWS V14.01,2013-01-14 20:42:00,
2013-01-14 15:47:00,45.5,45.2,30.00,SSE,163,0.0,4.0,99,0.00,,,0.00,VWS V14.01,2013-01-14 20:47:00,
2013-01-14 15:52:00,45.6,45.3,30.01,SSE,163,1.0,4.0,99,0.00,,,0.00,VWS V14.01,2013-01-14 20:52:00,
2013-01-14 15:57:00,45.8,45.5,30.01,SSE,163,0.0,4.0,99,0.00,,,0.00,VWS V14.01,2013-01-14 20:57:00,
2013-01-14 16:02:00,45.9,45.6,30.02,SSE,163,0.0,4.0,99,0.00,,,0.00,VWS V14.01,2013-01-14 21:02:00,
2013-01-14 16:07:00,45.9,45.6,30.01,SSE,163,0.0,1.0,99,0.00,,,0.00,VWS V14.01,2013-01-14 21:07:00,
2013-01-14 16:12:00,45.7,45.4,30.02,SSE,163,0.0,2.0,99,0.00,,,0.00,VWS V14.01,2013-01-14 21:12:00,
2013-01-14 16:17:00,45.5,45.2,30.02,SSE,163,0.0,2.0,99,0.00,,,0.00,VWS V14.01,2013-01-14 21:17:00,
2013-01-14 16:22:00,45.4,45.1,30.02,SSE,163,0.0,2.0,99,0.00,,,0.00,VWS V14.01,2013-01-14 21:22:00,
2013-01-14 16:27:00,45.3,45.0,30.02,SSE,163,0.0,2.0,99,0.00,,,0.00,VWS V14.01,2013-01-14 21:27:00,
2013-01-14 16:30:00,44.8,44.5,30.04,SSE,163,0.0,2.0,99,0.00,,,0.00,VWS V14.01,2013-01-14 21:30:00,
2013-01-14 16:32:00,45.4,45.1,30.02,SSE,163,0.0,0.0,99,0.00,,,0.00,VWS V14.01,2013-01-14 21:32:00,
2013-01-14 16:37:00,45.4,45.1,30.01,SSE,163,0.0,0.0,99,0.00,,,0.00,VWS V14.01,2013-01-14 21:37:00,
2013-01-14 16:42:00,45.4,45.1,30.01,SSE,163,0.0,0.0,99,0.00,,,0.00,VWS V14.01,2013-01-14 21:42:00,
2013-01-14 16:47:00,45.3,45.0,30.02,SSE,163,0.0,1.0,99,0.00,,,0.00,VWS V14.01,2013-01-14 21:47:00,
2013-01-14 16:52:00,45.3,45.0,30.03,SSE,163,0.0,1.0,99,0.00,,,0.00,VWS V14.01,2013-01-14 21:52:00,
2013-01-14 16:57:00,45.3,45.0,30.02,SSE,163,0.0,2.0,99,0.00,,,0.00,VWS V14.01,2013-01-14 21:57:00,
2013-01-14 17:00:00,44.6,44.3,30.03,SSE,163,0.0,2.0,99,0.00,,,0.00,VWS V14.01,2013-01-14 22:00:00,
2013-01-14 17:02:00,45.1,44.8,30.03,SSE,163,0.0,2.0,99,0.00,,,0.00,VWS V14.01,2013-01-14 22:02:00,
2013-01-14 17:07:00,45.1,44.8,30.03,SSE,163,0.0,0.0,99,0.00,,,0.00,VWS V14.01,2013-01-14 22:07:00,
2013-01-14 17:12:00,45.0,44.7,30.03,SSE,163,0.0,0.0,99,0.00,,,0.00,VWS V14.01,2013-01-14 22:12:00,
2013-01-14 17:17:00,44.9,44.6,30.04,SSE,163,0.0,1.0,99,0.00,,,0.00,VWS V14.01,2013-01-14 22:17:00,
2013-01-14 17:22:00,44.8,44.5,30.05,SSE,163,0.0,1.0,99,0.00,,,0.00,VWS V14.01,2013-01-14 22:22:00,
2013-01-14 17:27:00,44.8,44.5,30.04,SSE,163,0.0,2.0,99,0.00,,,0.00,VWS V14.01,2013-01-14 22:27:00,
2013-01-14 17:32:00,44.8,44.5,30.04,SSE,163,0.0,0.0,99,0.00,,,0.00,VWS V14.01,2013-01-14 22:32:00,
2013-01-14 17:37:00,44.8,44.5,30.03,SSE,163,0.0,1.0,99,0.00,,,0.00,VWS V14.01,2013-01-14 22:37:00,
2013-01-14 17:42:00,44.9,44.6,30.03,SSE,163,1.0,1.0,99,0.00,,,0.00,VWS V14.01,2013-01-14 22:42:00,
2013-01-14 17:47:00,44.7,44.4,30.03,SSE,163,0.0,2.0,99,0.00,,,0.00,VWS V14.01,2013-01-14 22:47:00,
2013-01-14 17:52:00,44.5,44.2,30.04,SSE,163,0.0,2.0,99,0.00,,,0.00,VWS V14.01,2013-01-14 22:52:00,
2013-01-14 17:57:00,44.5,44.2,30.03,SSE,163,0.0,2.0,99,0.00,,,0.00,VWS V14.01,2013-01-14 22:57:00,
2013-01-14 18:02:00,44.6,44.3,30.03,SSE,163,0.0,2.0,99,0.00,,,0.00,VWS V14.01,2013-01-14 23:02:00,
2013-01-14 18:07:00,44.7,44.4,30.04,SSE,163,0.0,1.0,99,0.00,,,0.00,VWS V14.01,2013-01-14 23:07:00,
2013-01-14 18:12:00,44.9,44.6,30.04,SSE,163,0.0,1.0,99,0.00,,,0.00,VWS V14.01,2013-01-14 23:12:00,
2013-01-14 18:17:00,45.1,44.8,30.04,SSE,163,0.0,1.0,99,0.00,,,0.00,VWS V14.01,2013-01-14 23:17:00,
2013-01-14 18:22:00,45.2,44.9,30.04,SSE,163,0.0,1.0,99,0.00,,,0.00,VWS V14.01,2013-01-14 23:22:00,
2013-01-14 18:27:00,45.3,45.0,30.04,SSE,163,0.0,1.0,99,0.00,,,0.00,VWS V14.01,2013-01-14 23:27:00,
2013-01-14 18:30:00,45.8,44.2,30.06,NW,311,0.0,5.0,94,0.00,,,0.00,VWS V14.01,2013-01-14 23:30:00,
2013-01-14 18:32:00,45.4,45.1,30.04,SSE,163,0.0,0.0,99,0.00,,,0.00,VWS V14.01,2013-01-14 23:32:00,
2013-01-14 18:37:00,45.4,45.1,30.05,SSE,163,0.0,0.0,99,0.00,,,0.00,VWS V14.01,2013-01-14 23:37:00,
2013-01-14 18:42:00,45.5,45.2,30.05,SSE,163,0.0,0.0,99,0.00,,,0.00,VWS V14.01,2013-01-14 23:42:00,
2013-01-14 18:47:00,45.5,45.2,30.06,SSE,163,0.0,0.0,99,0.00,,,0.00,VWS V14.01,2013-01-14 23:47:00,
2013-01-14 18:52:00,45.4,45.1,30.05,SSE,163,0.0,2.0,99,0.00,,,0.00,VWS V14.01,2013-01-14 23:52:00,
2013-01-14 18:57:00,45.1,44.8,30.05,SSE,163,0.0,2.0,99,0.00,,,0.00,VWS V14.01,2013-01-14 23:57:00,
2013-01-14 19:02:00,44.9,44.6,30.05,SSE,163,0.0,0.0,99,0.00,,,0.00,VWS V14.01,2013-01-15 00:02:00,
2013-01-14 19:07:00,44.7,44.4,30.05,SSE,163,2.0,2.0,99,0.00,,,0.00,VWS V14.01,2013-01-15 00:07:00,
2013-01-14 19:12:00,44.9,44.6,30.05,SSE,163,0.0,3.0,99,0.00,,,0.00,VWS V14.01,2013-01-15 00:12:00,
2013-01-14 19:17:00,45.1,44.6,30.05,WNW,291,1.0,5.0,98,0.00,,,0.00,VWS V14.01,2013-01-15 00:17:00,
2013-01-14 19:22:00,45.1,44.0,30.05,WNW,291,2.0,5.0,96,0.00,,,0.00,VWS V14.01,2013-01-15 00:22:00,
2013-01-14 19:27:00,45.4,44.0,30.06,WNW,303,2.0,5.0,95,0.00,,,0.00,VWS V14.01,2013-01-15 00:27:00,
2013-01-14 19:30:00,48.6,39.3,30.10,NNW,327,1.0,5.0,70,0.00,,,0.00,VWS V14.01,2013-01-15 00:30:00,
2013-01-14 19:32:00,45.8,44.2,30.06,NW,311,0.0,1.0,94,0.00,,,0.00,VWS V14.01,2013-01-15 00:32:00,
2013-01-14 19:37:00,45.6,43.7,30.07,NW,311,0.0,3.0,93,0.00,,,0.00,VWS V14.01,2013-01-15 00:37:00,
2013-01-14 19:42:00,45.6,43.1,30.07,NW,311,0.0,3.0,91,0.00,,,0.00,VWS V14.01,2013-01-15 00:42:00,
2013-01-14 19:47:00,45.9,42.5,30.06,NW,305,1.0,3.0,88,0.00,,,0.00,VWS V14.01,2013-01-15 00:47:00,
2013-01-14 19:52:00,46.4,42.5,30.07,NW,323,4.0,5.0,86,0.00,,,0.00,VWS V14.01,2013-01-15 00:52:00,
2013-01-14 19:57:00,46.9,42.3,30.07,NNW,343,0.0,5.0,84,0.00,,,0.00,VWS V14.01,2013-01-15 00:57:00,
2013-01-14 20:02:00,47.1,41.6,30.07,NNW,343,2.0,5.0,81,0.00,,,0.00,VWS V14.01,2013-01-15 01:02:00,
2013-01-14 20:07:00,47.6,41.1,30.08,West,273,1.0,4.0,78,0.00,,,0.00,VWS V14.01,2013-01-15 01:07:00,
2013-01-14 20:12:00,47.9,40.4,30.08,West,273,2.0,4.0,75,0.00,,,0.00,VWS V14.01,2013-01-15 01:12:00,
2013-01-14 20:17:00,48.3,40.1,30.09,West,273,0.0,4.0,73,0.00,,,0.00,VWS V14.01,2013-01-15 01:17:00,
2013-01-14 20:22:00,48.5,39.9,30.09,NW,305,1.0,4.0,72,0.00,,,0.00,VWS V14.01,2013-01-15 01:22:00,
2013-01-14 20:27:00,48.6,39.3,30.10,NNW,336,3.0,5.0,70,0.00,,,0.00,VWS V14.01,2013-01-15 01:27:00,
2013-01-14 20:30:00,47.5,37.8,30.11,NNW,337,3.0,8.0,69,0.00,,,0.00,VWS V14.01,2013-01-15 01:30:00,
2013-01-14 20:32:00,48.6,39.3,30.10,NNW,327,1.0,1.0,70,0.00,,,0.00,VWS V14.01,2013-01-15 01:32:00,
2013-01-14 20:37:00,48.6,38.9,30.10,West,270,1.0,8.0,69,0.00,,,0.00,VWS V14.01,2013-01-15 01:37:00,
2013-01-14 20:42:00,48.5,38.8,30.09,NNW,337,0.0,8.0,69,0.00,,,0.00,VWS V14.01,2013-01-15 01:42:00,
2013-01-14 20:47:00,48.3,39.0,30.08,NW,307,0.0,8.0,70,0.00,,,0.00,VWS V14.01,2013-01-15 01:47:00,
2013-01-14 20:52:00,48.2,38.9,30.09,NW,307,1.0,8.0,70,0.00,,,0.00,VWS V14.01,2013-01-15 01:52:00,
2013-01-14 20:57:00,48.1,38.4,30.10,NW,321,1.0,8.0,69,0.00,,,0.00,VWS V14.01,2013-01-15 01:57:00,
2013-01-14 21:00:00,46.9,36.9,30.11,WNW,284,2.0,6.0,68,0.00,,,0.00,VWS V14.01,2013-01-15 02:00:00,
2013-01-14 21:02:00,48.0,38.3,30.10,NNW,328,0.0,8.0,69,0.00,,,0.00,VWS V14.01,2013-01-15 02:02:00,
2013-01-14 21:07:00,47.9,37.9,30.10,NW,325,1.0,8.0,68,0.00,,,0.00,VWS V14.01,2013-01-15 02:07:00,
2013-01-14 21:12:00,47.8,37.8,30.10,NW,323,0.0,8.0,68,0.00,,,0.00,VWS V14.01,2013-01-15 02:12:00,
2013-01-14 21:17:00,47.8,37.8,30.10,NW,306,3.0,8.0,68,0.00,,,0.00,VWS V14.01,2013-01-15 02:17:00,
2013-01-14 21:22:00,47.6,37.6,30.11,NW,311,1.0,8.0,68,0.00,,,0.00,VWS V14.01,2013-01-15 02:22:00,
2013-01-14 21:27:00,47.6,37.6,30.11,NNW,338,1.0,8.0,68,0.00,,,0.00,VWS V14.01,2013-01-15 02:27:00,
2013-01-14 21:30:00,46.4,36.4,30.10,North,360,2.0,6.0,68,0.00,,,0.00,VWS V14.01,2013-01-15 02:30:00,
2013-01-14 21:32:00,47.5,37.8,30.10,NNW,337,1.0,3.0,69,0.00,,,0.00,VWS V14.01,2013-01-15 02:32:00,
2013-01-14 21:37:00,47.4,37.4,30.09,NNW,330,5.0,6.0,68,0.00,,,0.00,VWS V14.01,2013-01-15 02:37:00,
2013-01-14 21:42:00,47.3,37.3,30.10,NW,325,4.0,6.0,68,0.00,,,0.00,VWS V14.01,2013-01-15 02:42:00,
2013-01-14 21:47:00,47.2,37.2,30.10,NW,321,1.0,6.0,68,0.00,,,0.00,VWS V14.01,2013-01-15 02:47:00,
2013-01-14 21:52:00,47.1,37.1,30.10,NW,321,3.0,6.0,68,0.00,,,0.00,VWS V14.01,2013-01-15 02:52:00,
2013-01-14 21:57:00,47.0,37.0,30.11,NW,319,2.0,6.0,68,0.00,,,0.00,VWS V14.01,2013-01-15 02:57:00,
2013-01-14 22:02:00,46.9,36.9,30.11,WNW,284,2.0,6.0,68,0.00,,,0.00,VWS V14.01,2013-01-15 03:02:00,
2013-01-14 22:07:00,46.9,36.5,30.11,WNW,286,3.0,5.0,67,0.00,,,0.00,VWS V14.01,2013-01-15 03:07:00,
2013-01-14 22:12:00,46.8,36.8,30.11,NNW,337,2.0,5.0,68,0.00,,,0.00,VWS V14.01,2013-01-15 03:12:00,
2013-01-14 22:17:00,46.8,36.4,30.11,NNW,333,0.0,5.0,67,0.00,,,0.00,VWS V14.01,2013-01-15 03:17:00,
2013-01-14 22:22:00,46.6,36.6,30.10,North,5,0.0,5.0,68,0.00,,,0.00,VWS V14.01,2013-01-15 03:22:00,
2013-01-14 22:27:00,46.5,36.5,30.10,North,360,1.0,6.0,68,0.00,,,0.00,VWS V14.01,2013-01-15 03:27:00,
2013-01-14 22:30:00,43.5,36.1,30.15,NNW,344,2.0,12.0,75,0.02,,,0.02,VWS V14.01,2013-01-15 03:30:00,
2013-01-14 22:32:00,46.4,36.4,30.10,North,360,2.0,2.0,68,0.00,,,0.00,VWS V14.01,2013-01-15 03:32:00,
2013-01-14 22:37:00,46.3,36.7,30.11,North,360,0.0,3.0,69,0.00,,,0.00,VWS V14.01,2013-01-15 03:37:00,
2013-01-14 22:42:00,46.2,35.5,30.11,NNW,340,1.0,7.0,66,0.00,,,0.00,VWS V14.01,2013-01-15 03:42:00,
2013-01-14 22:47:00,46.2,34.7,30.13,NNW,331,2.0,7.0,64,0.01,,,0.01,VWS V14.01,2013-01-15 03:47:00,
2013-01-14 22:52:00,46.1,33.8,30.14,NNW,339,4.0,7.0,62,0.01,,,0.01,VWS V14.01,2013-01-15 03:52:00,
2013-01-14 22:57:00,46.1,33.8,30.17,WNW,302,1.0,7.0,62,0.01,,,0.01,VWS V14.01,2013-01-15 03:57:00,
2013-01-14 23:02:00,46.1,34.2,30.19,NW,323,1.0,7.0,63,0.01,,,0.01,VWS V14.01,2013-01-15 04:02:00,
2013-01-14 23:07:00,46.1,35.8,30.18,NNW,327,0.0,9.0,67,0.01,,,0.01,VWS V14.01,2013-01-15 04:07:00,
2013-01-14 23:12:00,46.0,36.0,30.17,NNW,327,2.0,9.0,68,0.01,,,0.01,VWS V14.01,2013-01-15 04:12:00,
2013-01-14 23:17:00,45.7,37.2,30.15,ENE,66,1.0,9.0,72,0.01,,,0.01,VWS V14.01,2013-01-15 04:17:00,
2013-01-14 23:22:00,45.0,36.5,30.15,North,10,1.0,9.0,72,0.01,,,0.01,VWS V14.01,2013-01-15 04:22:00,
2013-01-14 23:27:00,44.4,36.3,30.14,North,9,1.0,9.0,73,0.01,,,0.01,VWS V14.01,2013-01-15 04:27:00,
2013-01-14 23:30:00,40.1,38.0,30.18,NNW,341,0.0,2.0,92,0.05,,,0.01,VWS V14.01,2013-01-15 04:30:00,
2013-01-14 23:32:00,43.5,36.1,30.16,NNW,344,1.0,2.0,75,0.02,,,0.02,VWS V14.01,2013-01-15 04:32:00,
2013-01-14 23:37:00,42.9,36.5,30.18,NNW,344,1.0,4.0,78,0.03,,,0.03,VWS V14.01,2013-01-15 04:37:00,
2013-01-14 23:42:00,42.3,36.9,30.18,NNW,341,1.0,5.0,81,0.03,,,0.03,VWS V14.01,2013-01-15 04:42:00,
2013-01-14 23:47:00,41.8,37.3,30.18,NNW,341,0.0,5.0,84,0.04,,,0.04,VWS V14.01,2013-01-15 04:47:00,
2013-01-14 23:52:00,41.4,37.2,30.18,NNW,341,0.0,5.0,85,0.04,,,0.04,VWS V14.01,2013-01-15 04:52:00,
2013-01-14 23:57:00,41.3,37.4,30.19,NNW,341,0.0,5.0,86,0.04,,,0.04,VWS V14.01,2013-01-15 04:57:00,